Byron Township, Michigan
Current Conditions -  °F | °C
As of 9:53 PM on Tuesday 21 Oct 2014 (Local Time) from KGRR Reporting Station
Clear Clear  
Wind Chill: 33°   Ceiling: Unl
Heat Index: 37°   Visibility: 10mi
Dew Point: 35°   Wind: 5mph
Humidity: 93%   Direction: 70°ENE
Pressure: 30.24"   Gusts: NA
Location:  42.7984°N, 85.7381°W
Report Text: KGRR 220153Z 07004KT 10SM CLR 03/02 A3024 RMK AO2 SLP246 T00280017
Loading
Personal Weather Stations






























Interactive Weather Map
Tropical Storm Tracking
New forecast layout! Learn more

10-Day Weather Forecast

Advertisements
Track Severe Weather on mobile